Terminal Aerodrome Forecast
Issued by NWS

Home | Current Version | Previous Version | Text Only | Print | Product List | Glossary Off
Versions: 1 2 3 4 5 6 7 8 9 10 11 12 13 14

563
FTUS41 KCLE 160233 AAA
TAFFDY
TAF AMD
KFDY 160233Z 1603/1624 31011KT P6SM FEW025 SCT035
     FM160400 31007KT P6SM FEW025 SCT150
     FM161200 29005KT P6SM SCT030 SCT050
      TEMPO 1618/1621 BKN050=

USA.gov is the U.S. government's official web portal to all federal, state and local government web resources and services.